createdAt,value
2018-08-23T00:00:42.183Z,100655.88
2018-08-23T00:01:45.601Z,100647.95
2018-08-23T00:02:49.019Z,100653.73
2018-08-23T00:03:52.767Z,100644.37
2018-08-23T00:04:56.159Z,100652.72
2018-08-23T00:05:59.626Z,100646.78
2018-08-23T00:07:03.075Z,100650.73
2018-08-23T00:08:10.442Z,100647.58
2018-08-23T00:09:13.797Z,100649.56
2018-08-23T00:10:17.229Z,100645.38
2018-08-23T00:11:23.829Z,100644.80
2018-08-23T00:12:32.439Z,100637.03
2018-08-23T00:13:41.206Z,100641.21
2018-08-23T00:14:44.595Z,100638.00
2018-08-23T00:15:48.027Z,100633.23
2018-08-23T00:16:51.548Z,100641.00
2018-08-23T00:17:55.723Z,100634.04
2018-08-23T00:18:59.132Z,100638.59
2018-08-23T00:20:03.775Z,100637.41
2018-08-23T00:21:12.263Z,100635.22
2018-08-23T00:22:30.265Z,100634.04
2018-08-23T00:23:33.675Z,100632.44
2018-08-23T00:24:37.132Z,100629.65
2018-08-23T00:25:40.489Z,100629.65
2018-08-23T00:26:46.303Z,100626.06
2018-08-23T00:27:49.714Z,100626.66
2018-08-23T00:28:53.107Z,100625.85
2018-08-23T00:29:56.473Z,100626.06
2018-08-23T00:30:59.985Z,100628.84
2018-08-23T00:32:05.657Z,100631.62
2018-08-23T00:33:09.057Z,100625.47
2018-08-23T00:34:12.548Z,100623.87
2018-08-23T00:35:19.874Z,100621.67
2018-08-23T00:36:23.277Z,100622.48
2018-08-23T00:37:26.700Z,100621.09
2018-08-23T00:38:30.098Z,100621.67
2018-08-23T00:39:33.625Z,100618.89
2018-08-23T00:40:44.908Z,100611.94
2018-08-23T00:41:53.698Z,100613.54
2018-08-23T00:43:02.492Z,100619.91
2018-08-23T00:44:05.931Z,100616.91
2018-08-23T00:45:15.593Z,100616.91
2018-08-23T00:46:19.035Z,100611.56
2018-08-23T00:47:24.999Z,100614.34
2018-08-23T00:48:28.412Z,100618.52
2018-08-23T00:49:33.456Z,100609.36
2018-08-23T00:50:53.823Z,100611.56
2018-08-23T00:51:57.197Z,100612.95
2018-08-23T00:53:00.657Z,100612.95
2018-08-23T00:54:04.193Z,100611.56
2018-08-23T00:55:16.334Z,100606.20
2018-08-23T00:56:22.808Z,100610.16
2018-08-23T00:57:26.224Z,100609.95
2018-08-23T00:58:29.577Z,100614.72
2018-08-23T00:59:33.025Z,100615.52
2018-08-23T01:00:36.416Z,100611.94
2018-08-23T01:01:39.836Z,100611.94
2018-08-23T01:02:43.273Z,100608.34
2018-08-23T01:03:46.673Z,100608.34
2018-08-23T01:04:50.062Z,100607.17
2018-08-23T01:05:53.506Z,100612.52
2018-08-23T01:06:56.892Z,100610.55
2018-08-23T01:08:00.296Z,100613.33
2018-08-23T01:09:04.610Z,100614.13
2018-08-23T01:10:08.081Z,100606.95
2018-08-23T01:11:11.470Z,100607.17
2018-08-23T01:12:14.902Z,100609.36
2018-08-23T01:13:18.304Z,100605.19
2018-08-23T01:14:21.720Z,100603.20
2018-08-23T01:15:25.124Z,100608.19
2018-08-23T01:16:28.535Z,100604.59
2018-08-23T01:17:31.947Z,100608.19
2018-08-23T01:18:35.355Z,100599.25
2018-08-23T01:19:44.068Z,100608.40
2018-08-23T01:20:48.585Z,100613.16
2018-08-23T01:21:56.111Z,100607.01
2018-08-23T01:23:01.225Z,100603.63
2018-08-23T01:24:04.713Z,100606.20
2018-08-23T01:25:08.143Z,100600.64
2018-08-23T01:26:11.623Z,100596.67
2018-08-23T01:27:51.389Z,100602.03
2018-08-23T01:28:54.813Z,100595.66
2018-08-23T01:29:58.191Z,100599.03
2018-08-23T01:31:17.151Z,100595.07
2018-08-23T01:32:35.131Z,100596.25
2018-08-23T01:33:38.507Z,100596.25
2018-08-23T01:34:41.895Z,100592.08
2018-08-23T01:35:46.316Z,100588.70
2018-08-23T01:36:49.685Z,100590.69
2018-08-23T01:37:53.192Z,100593.09
2018-08-23T01:38:56.626Z,100588.11
2018-08-23T01:40:00.274Z,100586.51
2018-08-23T01:41:08.980Z,100581.53
2018-08-23T01:42:12.463Z,100584.53
2018-08-23T01:43:15.875Z,100580.35
2018-08-23T01:44:19.395Z,100580.94
2018-08-23T01:45:22.759Z,100572.59
2018-08-23T01:46:31.431Z,100575.97
2018-08-23T01:47:41.633Z,100573.39
2018-08-23T01:48:49.459Z,100574.57
2018-08-23T01:49:52.834Z,100575.16
2018-08-23T01:50:56.231Z,100571.58
2018-08-23T01:51:59.640Z,100576.55
2018-08-23T01:53:03.031Z,100579.92
2018-08-23T01:54:06.487Z,100579.92
2018-08-23T01:55:10.457Z,100580.73
2018-08-23T01:56:13.859Z,100573.34
2018-08-23T01:57:21.456Z,100571.37
2018-08-23T01:58:24.914Z,100569.17
2018-08-23T01:59:28.326Z,100573.34
2018-08-23T02:00:32.989Z,100570.56
2018-08-23T02:01:36.411Z,100566.98
2018-08-23T02:02:39.870Z,100572.17
2018-08-23T02:03:43.744Z,100569.17
2018-08-23T02:04:47.947Z,100570.56
2018-08-23T02:05:51.338Z,100568.95
2018-08-23T02:06:54.757Z,100571.95
2018-08-23T02:07:58.245Z,100564.20
2018-08-23T02:09:01.635Z,100562.80
2018-08-23T02:10:05.683Z,100559.22
2018-08-23T02:11:09.126Z,100562.80
2018-08-23T02:12:12.498Z,100562.22
2018-08-23T02:13:24.186Z,100562.22
2018-08-23T02:14:28.631Z,100564.20
2018-08-23T02:15:36.349Z,100556.65
2018-08-23T02:16:50.898Z,100560.82
2018-08-23T02:17:56.526Z,100556.65
2018-08-23T02:18:59.956Z,100559.22
2018-08-23T02:20:03.452Z,100552.05
2018-08-23T02:21:09.463Z,100561.20
2018-08-23T02:22:13.143Z,100553.66
2018-08-23T02:23:16.530Z,100555.05
2018-08-23T02:24:24.079Z,100546.48
2018-08-23T02:25:27.490Z,100550.28
2018-08-23T02:26:30.922Z,100548.30
2018-08-23T02:27:34.486Z,100550.28
2018-08-23T02:28:37.858Z,100548.08
2018-08-23T02:29:42.674Z,100548.30
2018-08-23T02:30:56.832Z,100553.06
2018-08-23T02:32:00.244Z,100544.12
2018-08-23T02:33:03.778Z,100546.11
2018-08-23T02:34:07.344Z,100542.73
2018-08-23T02:35:10.751Z,100545.30
2018-08-23T02:36:17.508Z,100539.73
2018-08-23T02:37:21.626Z,100536.95
2018-08-23T02:38:25.763Z,100541.34
2018-08-23T02:39:29.167Z,100533.20
2018-08-23T02:40:34.824Z,100535.77
2018-08-23T02:41:38.355Z,100532.98
2018-08-23T02:42:41.764Z,100523.84
2018-08-23T02:43:45.707Z,100529.61
2018-08-23T02:44:49.155Z,100529.61
2018-08-23T02:45:53.503Z,100528.60
2018-08-23T02:46:56.934Z,100530.20
2018-08-23T02:48:01.020Z,100530.80
2018-08-23T02:49:04.477Z,100524.42
2018-08-23T02:50:07.920Z,100526.62
2018-08-23T02:51:11.394Z,100530.80
2018-08-23T02:52:14.832Z,100527.21
2018-08-23T02:53:33.480Z,100527.00
2018-08-23T02:54:36.930Z,100529.19
2018-08-23T02:55:44.620Z,100528.39
2018-08-23T02:56:52.621Z,100531.39
2018-08-23T02:58:00.158Z,100529.99
2018-08-23T02:59:06.585Z,100535.56
2018-08-23T03:00:10.042Z,100532.19
2018-08-23T03:01:13.472Z,100537.16
2018-08-23T03:02:17.117Z,100532.19
2018-08-23T03:03:20.614Z,100534.59
2018-08-23T03:04:25.058Z,100528.81
2018-08-23T03:05:28.508Z,100534.38
2018-08-23T03:06:37.326Z,100528.22
2018-08-23T03:07:40.815Z,100528.22
2018-08-23T03:08:44.544Z,100526.03
2018-08-23T03:09:47.922Z,100525.23
2018-08-23T03:10:51.352Z,100523.25
2018-08-23T03:11:55.951Z,100519.66
2018-08-23T03:12:59.347Z,100522.45
2018-08-23T03:14:02.791Z,100516.08
2018-08-23T03:15:07.213Z,100519.66
2018-08-23T03:16:10.598Z,100516.08
2018-08-23T03:17:23.666Z,100513.88
2018-08-23T03:18:27.054Z,100517.47
2018-08-23T03:19:30.443Z,100519.08
2018-08-23T03:20:34.326Z,100512.11
2018-08-23T03:21:37.791Z,100510.30
2018-08-23T03:22:41.754Z,100513.30
2018-08-23T03:23:45.909Z,100509.92
2018-08-23T03:24:49.284Z,100509.71
2018-08-23T03:25:52.766Z,100503.55
2018-08-23T03:26:56.124Z,100514.09
2018-08-23T03:27:59.510Z,100507.14
2018-08-23T03:29:03.408Z,100499.38
2018-08-23T03:30:09.072Z,100501.57
2018-08-23T03:31:12.531Z,100506.34
2018-08-23T03:32:15.898Z,100506.34
2018-08-23T03:33:19.344Z,100502.97
2018-08-23T03:34:22.768Z,100504.95
2018-08-23T03:35:26.243Z,100505.16
2018-08-23T03:36:29.608Z,100504.95
2018-08-23T03:37:33.015Z,100508.32
2018-08-23T03:38:36.432Z,100497.98
2018-08-23T03:39:39.843Z,100504.95
2018-08-23T03:40:43.227Z,100503.55
2018-08-23T03:41:46.598Z,100504.73
2018-08-23T03:42:50.021Z,100504.73
2018-08-23T03:43:53.519Z,100509.71
2018-08-23T03:44:57.777Z,100506.13
2018-08-23T03:46:01.124Z,100507.52
2018-08-23T03:47:04.545Z,100504.95
2018-08-23T03:48:07.936Z,100505.53
2018-08-23T03:49:11.353Z,100507.52
2018-08-23T03:50:14.733Z,100507.52
2018-08-23T03:51:18.124Z,100502.75
2018-08-23T03:52:22.972Z,100502.55
2018-08-23T03:53:48.482Z,100498.37
2018-08-23T03:54:55.474Z,100504.73
2018-08-23T03:56:07.612Z,100507.09
2018-08-23T03:57:16.363Z,100507.66
2018-08-23T03:58:19.756Z,100512.66
2018-08-23T03:59:23.205Z,100514.05
2018-08-23T04:00:31.884Z,100513.01
2018-08-23T04:01:35.308Z,100513.59
2018-08-23T04:02:38.751Z,100513.39
2018-08-23T04:03:42.288Z,100514.56
2018-08-23T04:04:47.394Z,100512.96
2018-08-23T04:05:50.835Z,100515.75
2018-08-23T04:06:54.306Z,100511.36
2018-08-23T04:07:57.709Z,100509.75
2018-08-23T04:09:01.119Z,100509.75
2018-08-23T04:10:04.719Z,100508.36
2018-08-23T04:11:08.118Z,100505.37
2018-08-23T04:12:11.504Z,100501.58
2018-08-23T04:13:15.007Z,100502.97
2018-08-23T04:14:18.411Z,100501.58
2018-08-23T04:15:33.049Z,100503.77
2018-08-23T04:16:36.336Z,100502.16
2018-08-23T04:17:39.902Z,100504.95
2018-08-23T04:18:43.310Z,100500.56
2018-08-23T04:19:48.492Z,100495.59
2018-08-23T04:20:54.357Z,100494.78
2018-08-23T04:21:57.891Z,100495.38
2018-08-23T04:23:01.313Z,100504.52
2018-08-23T04:24:05.052Z,100498.95
2018-08-23T04:25:08.452Z,100501.53
2018-08-23T04:26:11.937Z,100503.72
2018-08-23T04:27:15.340Z,100506.13
2018-08-23T04:28:18.729Z,100502.16
2018-08-23T04:29:33.517Z,100503.55
2018-08-23T04:30:36.936Z,100498.58
2018-08-23T04:31:40.325Z,100499.38
2018-08-23T04:32:45.747Z,100497.98
2018-08-23T04:33:49.140Z,100496.59
2018-08-23T04:34:52.561Z,100502.97
2018-08-23T04:35:55.952Z,100500.77
2018-08-23T04:36:59.368Z,100503.55
2018-08-23T04:38:03.028Z,100506.55
2018-08-23T04:39:10.454Z,100501.58
2018-08-23T04:40:13.897Z,100504.14
2018-08-23T04:41:17.296Z,100504.95
2018-08-23T04:42:20.710Z,100503.94
2018-08-23T04:43:24.109Z,100504.52
2018-08-23T04:44:27.805Z,100505.91
2018-08-23T04:45:33.570Z,100502.12
2018-08-23T04:46:36.982Z,100506.21
2018-08-23T04:47:47.837Z,100503.97
2018-08-23T04:48:51.489Z,100501.94
2018-08-23T04:49:55.084Z,100502.70
2018-08-23T04:50:58.472Z,100501.23
2018-08-23T04:52:02.048Z,100502.19
2018-08-23T04:53:05.639Z,100499.36
2018-08-23T04:54:09.104Z,100495.35
2018-08-23T04:55:12.464Z,100500.86
2018-08-23T04:56:15.854Z,100499.36
2018-08-23T04:57:19.622Z,100499.52
2018-08-23T04:58:23.061Z,100496.69
2018-08-23T04:59:26.456Z,100500.01
2018-08-23T05:00:30.505Z,100502.57
2018-08-23T05:01:33.913Z,100499.28
2018-08-23T05:02:37.365Z,100504.04
2018-08-23T05:03:40.791Z,100498.64
2018-08-23T05:04:44.177Z,100495.64
2018-08-23T05:05:47.563Z,100496.02
2018-08-23T05:06:50.983Z,100495.59
2018-08-23T05:07:54.408Z,100497.56
2018-08-23T05:08:57.930Z,100498.37
2018-08-23T05:10:01.425Z,100496.77
2018-08-23T05:11:04.753Z,100496.55
2018-08-23T05:12:08.199Z,100495.16
2018-08-23T05:13:11.733Z,100497.86
2018-08-23T05:14:15.120Z,100496.52
2018-08-23T05:15:18.539Z,100504.48
2018-08-23T05:16:21.980Z,100504.00
2018-08-23T05:17:25.882Z,100502.83
2018-08-23T05:18:29.281Z,100501.06
2018-08-23T05:19:32.680Z,100503.05
2018-08-23T05:20:36.206Z,100501.44
2018-08-23T05:21:39.608Z,100502.95
2018-08-23T05:23:16.298Z,100504.34
2018-08-23T05:24:21.697Z,100501.06
2018-08-23T05:25:25.828Z,100496.47
2018-08-23T05:26:29.294Z,100500.57
2018-08-23T05:27:33.440Z,100497.42
2018-08-23T05:28:38.452Z,100498.59
2018-08-23T05:29:42.913Z,100499.62
2018-08-23T05:30:47.889Z,100502.77
2018-08-23T05:31:51.347Z,100497.48
2018-08-23T05:32:55.957Z,100496.40
2018-08-23T05:34:02.708Z,100492.60
2018-08-23T05:35:06.120Z,100493.03
2018-08-23T05:36:13.638Z,100495.45
2018-08-23T05:37:17.065Z,100487.55
2018-08-23T05:38:20.798Z,100492.14
2018-08-23T05:39:33.959Z,100491.00
2018-08-23T05:40:43.022Z,100496.31
2018-08-23T05:41:46.518Z,100489.52
2018-08-23T05:42:54.421Z,100493.69
2018-08-23T05:44:12.464Z,100491.86
2018-08-23T05:45:15.841Z,100494.20
2018-08-23T05:46:19.252Z,100496.18
2018-08-23T05:47:22.943Z,100494.14
2018-08-23T05:48:32.470Z,100495.31
2018-08-23T05:49:35.841Z,100487.19
2018-08-23T05:50:39.315Z,100484.56
2018-08-23T05:51:43.863Z,100484.56
2018-08-23T05:52:47.328Z,100482.38
2018-08-23T05:53:53.149Z,100480.03
2018-08-23T05:54:57.373Z,100477.69
2018-08-23T05:56:01.696Z,100479.08
2018-08-23T05:57:05.182Z,100477.32
2018-08-23T05:58:19.670Z,100477.75
2018-08-23T05:59:24.481Z,100473.47
2018-08-23T06:00:28.169Z,100472.30
2018-08-23T06:01:31.575Z,100471.13
2018-08-23T06:02:35.061Z,100474.27
2018-08-23T06:03:38.806Z,100475.13
2018-08-23T06:04:43.366Z,100473.46
2018-08-23T06:05:48.061Z,100471.64
2018-08-23T06:06:51.533Z,100474.84
2018-08-23T06:07:54.997Z,100475.80
2018-08-23T06:09:00.845Z,100471.78
2018-08-23T06:10:04.376Z,100467.04
2018-08-23T06:11:11.189Z,100474.78
2018-08-23T06:12:14.618Z,100479.38
2018-08-23T06:13:18.596Z,100474.78
2018-08-23T06:14:22.023Z,100474.56
2018-08-23T06:15:25.759Z,100471.57
2018-08-23T06:16:29.216Z,100469.59
2018-08-23T06:17:32.654Z,100471.20
2018-08-23T06:18:36.191Z,100468.64
2018-08-23T06:19:39.644Z,100468.21
2018-08-23T06:20:43.070Z,100471.78
2018-08-23T06:21:46.505Z,100471.78
2018-08-23T06:22:49.891Z,100469.81
2018-08-23T06:23:54.101Z,100468.21
2018-08-23T06:24:57.515Z,100470.40
2018-08-23T06:26:01.125Z,100472.81
2018-08-23T06:27:04.612Z,100469.59
2018-08-23T06:28:20.807Z,100466.36
2018-08-23T06:29:33.768Z,100471.69
2018-08-23T06:30:37.275Z,100473.88
2018-08-23T06:31:51.724Z,100475.86
2018-08-23T06:32:59.343Z,100471.47
2018-08-23T06:34:02.847Z,100473.45
2018-08-23T06:35:06.282Z,100479.80
2018-08-23T06:36:10.582Z,100469.87
2018-08-23T06:37:14.402Z,100477.39
2018-08-23T06:38:17.763Z,100471.77
2018-08-23T06:39:21.165Z,100471.98
2018-08-23T06:40:24.609Z,100470.23
2018-08-23T06:41:28.859Z,100470.02
2018-08-23T06:42:45.184Z,100465.48
2018-08-23T06:43:49.045Z,100467.31
2018-08-23T06:44:53.392Z,100470.30
2018-08-23T06:45:56.905Z,100467.52
2018-08-23T06:47:00.348Z,100468.48
2018-08-23T06:48:03.989Z,100469.12
2018-08-23T06:49:07.459Z,100462.19
2018-08-23T06:50:10.937Z,100464.05
2018-08-23T06:51:14.415Z,100459.88
2018-08-23T06:52:50.063Z,100467.63
2018-08-23T06:53:55.387Z,100467.84
2018-08-23T06:54:58.798Z,100465.87
2018-08-23T06:56:02.259Z,100468.86
2018-08-23T06:57:05.697Z,100470.03
2018-08-23T06:58:09.149Z,100464.05
2018-08-23T06:59:12.593Z,100464.27
2018-08-23T07:00:21.249Z,100467.84
2018-08-23T07:01:35.299Z,100471.64
2018-08-23T07:02:44.135Z,100469.08
2018-08-23T07:03:56.778Z,100471.48
2018-08-23T07:05:00.217Z,100469.73
2018-08-23T07:06:03.699Z,100477.84
2018-08-23T07:07:11.247Z,100473.46
2018-08-23T07:08:14.726Z,100472.50
2018-08-23T07:09:18.970Z,100478.64
2018-08-23T07:10:22.838Z,100477.84
2018-08-23T07:11:26.905Z,100477.25
2018-08-23T07:12:30.349Z,100474.11
2018-08-23T07:13:33.759Z,100471.92
2018-08-23T07:14:37.496Z,100472.29
2018-08-23T07:15:45.434Z,100472.88
2018-08-23T07:16:50.213Z,100473.24
2018-08-23T07:17:53.675Z,100478.06
2018-08-23T07:18:57.293Z,100479.66
2018-08-23T07:20:02.812Z,100478.86
2018-08-23T07:21:06.374Z,100485.06
2018-08-23T07:22:09.872Z,100474.27
2018-08-23T07:23:24.765Z,100484.20
2018-08-23T07:24:39.593Z,100491.00
2018-08-23T07:25:44.912Z,100491.80
2018-08-23T07:26:48.405Z,100484.70
2018-08-23T07:27:51.847Z,100487.11
2018-08-23T07:28:55.321Z,100490.11
2018-08-23T07:29:59.587Z,100484.77
2018-08-23T07:31:02.997Z,100489.16
2018-08-23T07:32:07.622Z,100495.17
2018-08-23T07:33:11.036Z,100489.25
2018-08-23T07:34:14.412Z,100493.26
2018-08-23T07:35:18.825Z,100486.75
2018-08-23T07:36:31.203Z,100492.52
2018-08-23T07:37:35.895Z,100491.34
2018-08-23T07:38:39.326Z,100491.78
2018-08-23T07:39:47.013Z,100497.77
2018-08-23T07:40:50.507Z,100495.20
2018-08-23T07:41:53.970Z,100491.25
2018-08-23T07:42:57.515Z,100487.89
2018-08-23T07:44:00.872Z,100485.36
2018-08-23T07:45:04.713Z,100493.11
2018-08-23T07:46:08.368Z,100486.59
2018-08-23T07:47:11.791Z,100484.41
2018-08-23T07:48:15.198Z,100486.81
2018-08-23T07:49:18.586Z,100484.83
2018-08-23T07:50:22.065Z,100489.22
2018-08-23T07:51:26.330Z,100483.08
2018-08-23T07:52:31.192Z,100482.48
2018-08-23T07:53:34.616Z,100485.48
2018-08-23T07:54:38.044Z,100481.56
2018-08-23T07:55:41.495Z,100480.61
2018-08-23T07:56:44.966Z,100479.21
2018-08-23T07:57:48.408Z,100474.46
2018-08-23T07:58:54.991Z,100474.46
2018-08-23T07:59:59.661Z,100475.84
2018-08-23T08:01:03.168Z,100477.02
2018-08-23T08:02:11.645Z,100472.86
2018-08-23T08:03:15.758Z,100470.29
2018-08-23T08:04:19.272Z,100474.46
2018-08-23T08:05:24.705Z,100480.81
2018-08-23T08:06:28.851Z,100481.63
2018-08-23T08:07:32.733Z,100470.51
2018-08-23T08:08:36.235Z,100480.81
2018-08-23T08:09:39.683Z,100476.87
2018-08-23T08:10:45.279Z,100478.47
2018-08-23T08:11:53.934Z,100474.09
2018-08-23T08:12:57.603Z,100472.70
2018-08-23T08:14:14.318Z,100479.27
2018-08-23T08:15:18.279Z,100482.64
2018-08-23T08:16:22.393Z,100480.66
2018-08-23T08:17:25.955Z,100484.61
2018-08-23T08:18:29.380Z,100486.80
2018-08-23T08:19:37.421Z,100476.74
2018-08-23T08:20:40.878Z,100484.48
2018-08-23T08:21:44.339Z,100476.95
2018-08-23T08:22:47.762Z,100481.34
2018-08-23T08:23:57.806Z,100477.39
2018-08-23T08:25:10.566Z,100477.97
2018-08-23T08:26:14.084Z,100482.41
2018-08-23T08:27:17.635Z,100478.62
2018-08-23T08:28:21.083Z,100479.42
2018-08-23T08:29:29.623Z,100483.38
2018-08-23T08:30:40.805Z,100481.98
2018-08-23T08:31:44.190Z,100479.80
2018-08-23T08:32:47.630Z,100473.43
2018-08-23T08:33:51.120Z,100476.00
2018-08-23T08:34:57.797Z,100473.22
2018-08-23T08:36:02.766Z,100471.61
2018-08-23T08:37:06.220Z,100474.39
2018-08-23T08:38:09.656Z,100471.61
2018-08-23T08:39:13.131Z,100478.77
2018-08-23T08:40:21.816Z,100470.81
2018-08-23T08:41:25.248Z,100468.41
2018-08-23T08:42:31.413Z,100468.03
2018-08-23T08:43:34.893Z,100468.03
2018-08-23T08:44:38.323Z,100468.84
2018-08-23T08:45:41.740Z,100465.25
2018-08-23T08:46:45.152Z,100468.84
2018-08-23T08:47:48.785Z,100470.01
2018-08-23T08:48:52.208Z,100467.23
2018-08-23T08:49:55.840Z,100461.09
2018-08-23T08:51:15.777Z,100467.45
2018-08-23T08:52:19.193Z,100463.06
2018-08-23T08:53:22.609Z,100463.28
2018-08-23T08:54:26.032Z,100459.48
2018-08-23T08:55:29.440Z,100456.12
2018-08-23T08:56:48.454Z,100458.89
2018-08-23T08:57:51.927Z,100458.09
2018-08-23T08:58:55.324Z,100453.34
2018-08-23T08:59:58.764Z,100453.55
2018-08-23T09:01:02.175Z,100453.34
2018-08-23T09:02:05.738Z,100447.56
2018-08-23T09:03:09.148Z,100448.37
2018-08-23T09:04:16.696Z,100442.22
2018-08-23T09:05:20.054Z,100450.56
2018-08-23T09:06:27.768Z,100444.20
2018-08-23T09:07:32.334Z,100443.61
2018-08-23T09:08:36.856Z,100445.00
2018-08-23T09:09:42.005Z,100447.78
2018-08-23T09:10:45.473Z,100447.20
2018-08-23T09:11:48.920Z,100441.64
2018-08-23T09:12:52.382Z,100443.61
2018-08-23T09:13:55.885Z,100443.83
2018-08-23T09:14:59.838Z,100441.85
2018-08-23T09:16:08.503Z,100438.86
2018-08-23T09:17:28.575Z,100441.05
2018-08-23T09:18:31.961Z,100442.44
2018-08-23T09:19:46.608Z,100445.44
2018-08-23T09:20:52.931Z,100440.46
2018-08-23T09:22:05.369Z,100442.44
2018-08-23T09:23:08.807Z,100439.66
2018-08-23T09:24:25.212Z,100435.50
2018-08-23T09:25:43.339Z,100433.52
2018-08-23T09:26:46.792Z,100422.41
2018-08-23T09:27:50.887Z,100428.77
2018-08-23T09:28:54.291Z,100422.98
2018-08-23T09:29:57.780Z,100434.31
2018-08-23T09:31:01.195Z,100434.11
2018-08-23T09:32:28.425Z,100431.54
2018-08-23T09:33:31.814Z,100427.37
2018-08-23T09:34:35.271Z,100435.92
2018-08-23T09:35:38.864Z,100429.94
2018-08-23T09:36:42.281Z,100434.31
2018-08-23T09:37:47.043Z,100432.93
2018-08-23T09:38:50.468Z,100435.92
2018-08-23T09:39:53.900Z,100433.73
2018-08-23T09:40:57.305Z,100429.56
2018-08-23T09:42:00.713Z,100428.77
2018-08-23T09:43:04.492Z,100432.55
2018-08-23T09:44:07.871Z,100432.77
2018-08-23T09:45:15.075Z,100428.39
2018-08-23T09:46:18.493Z,100424.22
2018-08-23T09:47:21.956Z,100428.39
2018-08-23T09:48:25.375Z,100423.42
2018-08-23T09:49:28.776Z,100420.86
2018-08-23T09:50:32.336Z,100420.27
2018-08-23T09:51:36.000Z,100426.20
2018-08-23T09:52:45.191Z,100420.86
2018-08-23T09:53:48.597Z,100419.47
2018-08-23T09:54:52.037Z,100420.86
2018-08-23T09:55:56.686Z,100423.05
2018-08-23T09:57:00.097Z,100413.91
2018-08-23T09:58:03.529Z,100418.08
2018-08-23T09:59:08.127Z,100425.23
2018-08-23T10:00:13.248Z,100428.02
2018-08-23T10:01:22.085Z,100421.07
2018-08-23T10:02:30.689Z,100424.44
2018-08-23T10:04:39.334Z,100427.22
2018-08-23T10:05:48.096Z,100422.45
2018-08-23T10:07:01.555Z,100421.88
2018-08-23T10:08:10.563Z,100412.73
2018-08-23T10:09:19.217Z,100410.76
2018-08-23T10:10:27.978Z,100411.34
2018-08-23T10:11:36.950Z,100408.56
2018-08-23T10:12:45.703Z,100407.17
2018-08-23T10:13:54.327Z,100409.58
2018-08-23T10:15:03.471Z,100402.42
2018-08-23T10:16:12.234Z,100401.83
2018-08-23T10:17:20.787Z,100400.23
2018-08-23T10:18:29.406Z,100401.03
2018-08-23T10:19:38.182Z,100396.86
2018-08-23T10:20:46.959Z,100399.64
2018-08-23T10:21:55.517Z,100398.25
2018-08-23T10:23:04.245Z,100395.47
2018-08-23T10:24:15.390Z,100389.12
2018-08-23T10:25:32.312Z,100390.93
2018-08-23T10:26:35.878Z,100395.09
2018-08-23T10:27:39.304Z,100395.69
2018-08-23T10:28:48.063Z,100390.13
2018-08-23T10:29:51.525Z,100388.16
2018-08-23T10:30:55.718Z,100389.33
2018-08-23T10:31:59.439Z,100389.55
2018-08-23T10:33:02.855Z,100383.98
2018-08-23T10:34:06.475Z,100392.32
2018-08-23T10:35:09.889Z,100384.78
2018-08-23T10:36:13.600Z,100383.98
2018-08-23T10:37:17.056Z,100384.20
2018-08-23T10:38:22.173Z,100385.38
2018-08-23T10:39:25.532Z,100384.78
2018-08-23T10:40:28.947Z,100386.98
2018-08-23T10:41:32.463Z,100384.78
2018-08-23T10:42:35.873Z,100383.02
2018-08-23T10:43:46.325Z,100382.22
2018-08-23T10:44:49.744Z,100388.58
2018-08-23T10:45:53.418Z,100384.20
2018-08-23T10:46:57.767Z,100380.03
2018-08-23T10:48:06.568Z,100378.64
2018-08-23T10:49:10.031Z,100376.08
2018-08-23T10:50:13.459Z,100377.47
2018-08-23T10:51:16.916Z,100379.66
2018-08-23T10:52:20.367Z,100376.88
2018-08-23T10:53:23.813Z,100379.06
2018-08-23T10:54:27.261Z,100378.48
2018-08-23T10:55:30.747Z,100376.29
2018-08-23T10:56:34.139Z,100379.06
2018-08-23T10:57:37.588Z,100382.64
2018-08-23T10:58:40.971Z,100384.84
2018-08-23T10:59:44.388Z,100378.27
2018-08-23T11:00:47.801Z,100372.92
2018-08-23T11:01:51.584Z,100379.28
2018-08-23T11:02:55.142Z,100370.94
2018-08-23T11:04:03.903Z,100375.11
2018-08-23T11:05:07.358Z,100376.72
2018-08-23T11:06:10.773Z,100371.74
2018-08-23T11:07:14.231Z,100368.75
2018-08-23T11:08:21.581Z,100382.06
2018-08-23T11:09:30.507Z,100382.27
2018-08-23T11:10:39.193Z,100378.10
2018-08-23T11:11:42.608Z,100378.10
2018-08-23T11:13:49.807Z,100381.69
2018-08-23T11:14:53.351Z,100379.49
2018-08-23T11:16:01.991Z,100378.34
2018-08-23T11:17:10.638Z,100375.33
2018-08-23T11:18:19.334Z,100371.16
2018-08-23T11:19:28.055Z,100376.72
2018-08-23T11:20:35.651Z,100376.72
2018-08-23T11:21:39.096Z,100376.72
2018-08-23T11:22:42.524Z,100369.77
2018-08-23T11:23:46.668Z,100371.95
2018-08-23T11:24:50.066Z,100369.77
2018-08-23T11:25:53.575Z,100378.34
2018-08-23T11:26:57.040Z,100374.73
2018-08-23T11:28:04.627Z,100370.02
2018-08-23T11:29:08.023Z,100365.84
2018-08-23T11:30:11.447Z,100367.23
2018-08-23T11:31:20.245Z,100371.41
2018-08-23T11:32:23.672Z,100374.39
2018-08-23T11:33:27.140Z,100366.05
2018-08-23T11:34:30.581Z,100361.89
2018-08-23T11:35:34.005Z,100368.63
2018-08-23T11:36:37.455Z,100366.86
2018-08-23T11:37:41.016Z,100364.66
2018-08-23T11:38:44.408Z,100358.73
2018-08-23T11:39:47.851Z,100356.59
2018-08-23T11:40:52.004Z,100357.39
2018-08-23T11:41:55.426Z,100360.38
2018-08-23T11:42:58.905Z,100364.55
2018-08-23T11:44:02.339Z,100361.98
2018-08-23T11:45:06.086Z,100361.39
2018-08-23T11:46:14.880Z,100355.25
2018-08-23T11:47:18.281Z,100344.94
2018-08-23T11:48:21.761Z,100351.08
2018-08-23T11:49:25.396Z,100349.91
2018-08-23T11:50:28.907Z,100338.78
2018-08-23T11:51:32.337Z,100350.11
2018-08-23T11:52:35.744Z,100353.11
2018-08-23T11:53:39.333Z,100348.14
2018-08-23T11:54:42.683Z,100353.11
2018-08-23T11:55:46.126Z,100358.66
2018-08-23T11:56:49.542Z,100351.12
2018-08-23T11:57:53.027Z,100347.77
2018-08-23T11:58:56.491Z,100340.81
2018-08-23T11:59:59.887Z,100341.02
2018-08-23T12:01:08.592Z,100342.41
2018-08-23T12:02:12.037Z,100343.45
2018-08-23T12:03:15.468Z,100334.31
2018-08-23T12:04:18.865Z,100343.67
2018-08-23T12:05:22.281Z,100345.86
2018-08-23T12:06:25.833Z,100341.69
2018-08-23T12:07:29.747Z,100341.91
2018-08-23T12:08:33.182Z,100340.52
2018-08-23T12:09:36.574Z,100337.95
2018-08-23T12:10:40.021Z,100345.69
2018-08-23T12:11:43.418Z,100340.72
2018-08-23T12:12:47.980Z,100342.33
2018-08-23T12:13:51.906Z,100345.91
2018-08-23T12:14:55.575Z,100334.78
2018-08-23T12:15:59.066Z,100334.20
2018-08-23T12:17:02.571Z,100338.37
2018-08-23T12:18:06.429Z,100335.59
2018-08-23T12:19:09.865Z,100338.95
2018-08-23T12:20:13.303Z,100341.36
2018-08-23T12:21:16.699Z,100333.02
2018-08-23T12:22:24.309Z,100336.98
2018-08-23T12:23:27.816Z,100337.56
2018-08-23T12:24:31.242Z,100331.63
2018-08-23T12:25:34.698Z,100342.95